createdAt,value
2018-08-30T00:38:18.872Z,11.78
2018-08-30T00:43:24.629Z,10.37
2018-08-30T00:48:29.944Z,8.70
2018-08-30T00:53:33.421Z,8.00
2018-08-30T00:58:36.733Z,8.75
2018-08-30T01:03:40.075Z,8.50
2018-08-30T01:08:43.347Z,9.75
2018-08-30T01:13:46.663Z,10.95
2018-08-30T01:18:49.991Z,12.50
2018-08-30T01:23:53.351Z,14.20
2018-08-30T01:28:56.659Z,17.92
2018-08-30T01:33:59.968Z,19.77
2018-08-30T01:39:03.346Z,20.32
2018-08-30T01:44:11.984Z,15.95
2018-08-30T01:49:15.351Z,12.37
2018-08-30T01:54:18.682Z,10.70
2018-08-30T01:59:22.564Z,8.98
2018-08-30T02:04:25.871Z,10.95
2018-08-30T02:09:30.153Z,7.50
2018-08-30T02:14:33.574Z,6.87
2018-08-30T02:19:39.955Z,7.08
2018-08-30T02:24:43.287Z,6.75
2018-08-30T02:29:46.640Z,6.90
2018-08-30T02:34:49.953Z,6.23
2018-08-30T02:39:53.284Z,7.10
2018-08-30T02:44:56.593Z,6.73
2018-08-30T02:50:00.125Z,5.67
2018-08-30T02:55:03.490Z,6.10
2018-08-30T03:00:06.945Z,5.47
2018-08-30T03:05:11.280Z,5.90
2018-08-30T03:10:14.609Z,6.60
2018-08-30T03:15:17.984Z,6.50
2018-08-30T03:20:21.937Z,5.97
2018-08-30T03:25:25.224Z,5.65
2018-08-30T03:30:28.759Z,5.60
2018-08-30T03:35:31.939Z,4.70
2018-08-30T03:40:35.272Z,5.00
2018-08-30T03:45:39.319Z,4.55
2018-08-30T03:50:43.525Z,3.60
2018-08-30T03:55:46.793Z,4.00
2018-08-30T04:00:50.100Z,3.40
2018-08-30T04:05:56.012Z,4.20
2018-08-30T04:10:59.546Z,3.95
2018-08-30T04:16:02.921Z,4.00
2018-08-30T04:21:06.290Z,3.80
2018-08-30T04:26:09.609Z,3.60
2018-08-30T04:31:15.023Z,4.00
2018-08-30T04:36:18.352Z,3.20
2018-08-30T04:41:21.753Z,3.50
2018-08-30T04:46:25.160Z,3.42
2018-08-30T04:51:29.152Z,3.72
2018-08-30T04:56:32.392Z,3.60
2018-08-30T05:01:37.486Z,4.05
2018-08-30T05:06:44.742Z,3.50
2018-08-30T05:11:48.021Z,3.37
2018-08-30T05:16:51.320Z,4.30
2018-08-30T05:21:54.718Z,4.47
2018-08-30T05:27:00.935Z,5.78
2018-08-30T05:32:04.216Z,5.30
2018-08-30T05:37:08.272Z,5.30
2018-08-30T05:42:11.637Z,5.67
2018-08-30T05:47:15.030Z,5.37
2018-08-30T05:52:18.448Z,6.58
2018-08-30T05:57:22.788Z,7.40
2018-08-30T06:02:27.736Z,8.10
2018-08-30T06:07:31.181Z,8.95
2018-08-30T06:12:35.259Z,9.20
2018-08-30T06:17:40.377Z,9.83
2018-08-30T06:22:43.676Z,10.40
2018-08-30T06:27:47.003Z,10.98
2018-08-30T06:32:50.441Z,10.63
2018-08-30T06:37:54.397Z,12.43
2018-08-30T06:42:57.778Z,13.20
2018-08-30T06:48:01.676Z,12.70
2018-08-30T06:53:05.204Z,13.93
2018-08-30T06:58:08.796Z,14.43
2018-08-30T07:03:16.197Z,14.50
2018-08-30T07:08:19.522Z,14.30
2018-08-30T07:13:22.765Z,13.68
2018-08-30T07:18:26.094Z,13.30
2018-08-30T07:23:29.448Z,14.17
2018-08-30T07:28:32.826Z,13.08
2018-08-30T07:33:36.288Z,12.87
2018-08-30T07:38:39.670Z,14.58
2018-08-30T07:43:43.233Z,15.30
2018-08-30T07:48:46.560Z,12.90
2018-08-30T07:53:49.861Z,16.00
2018-08-30T07:58:53.174Z,16.70
2018-08-30T08:03:56.510Z,18.10
2018-08-30T08:08:59.886Z,18.17
2018-08-30T08:14:03.260Z,17.95
2018-08-30T08:19:06.792Z,17.82
2018-08-30T08:24:10.128Z,18.42
2018-08-30T08:29:13.542Z,20.40
2018-08-30T08:34:16.837Z,19.30
2018-08-30T08:39:20.213Z,20.35
2018-08-30T08:44:24.343Z,19.02
2018-08-30T08:49:27.606Z,20.82
2018-08-30T08:54:30.901Z,19.20
2018-08-30T08:59:34.494Z,20.50
2018-08-30T09:04:38.250Z,21.10
2018-08-30T09:09:41.580Z,20.80
2018-08-30T09:14:44.905Z,19.52
2018-08-30T09:19:48.358Z,20.00
2018-08-30T09:24:51.703Z,17.55
2018-08-30T09:29:55.615Z,19.45
2018-08-30T09:34:59.059Z,18.48
2018-08-30T09:40:02.404Z,18.52
2018-08-30T09:45:05.724Z,17.07
2018-08-30T09:50:09.025Z,15.00
2018-08-30T09:55:12.359Z,17.62
2018-08-30T10:01:20.993Z,16.35
2018-08-30T10:06:24.475Z,15.00
2018-08-30T10:11:27.859Z,14.60
2018-08-30T10:16:31.459Z,14.70
2018-08-30T10:21:37.437Z,14.10
2018-08-30T10:26:41.416Z,14.67
2018-08-30T10:31:53.244Z,14.40
2018-08-30T10:37:00.819Z,12.37
2018-08-30T10:42:04.241Z,12.27
2018-08-30T10:47:07.606Z,12.80
2018-08-30T10:52:11.964Z,12.30
2018-08-30T10:57:15.283Z,12.47
2018-08-30T11:02:18.759Z,13.32
2018-08-30T11:07:22.034Z,13.32
2018-08-30T11:12:25.392Z,12.68
2018-08-30T11:17:28.768Z,14.00
2018-08-30T11:22:32.280Z,14.00
2018-08-30T11:27:36.306Z,13.58
2018-08-30T11:32:39.847Z,12.80
2018-08-30T11:37:43.215Z,13.98
2018-08-30T11:42:46.380Z,13.22
2018-08-30T11:47:50.714Z,11.40
2018-08-30T11:52:54.040Z,11.37
2018-08-30T11:57:57.383Z,12.10
2018-08-30T12:03:01.771Z,9.85
2018-08-30T12:08:05.729Z,10.08
2018-08-30T12:13:08.912Z,10.40
2018-08-30T12:18:12.214Z,10.45
2018-08-30T12:23:17.596Z,11.00
2018-08-30T12:28:21.068Z,10.70
2018-08-30T12:33:25.102Z,10.25
2018-08-30T12:38:29.014Z,9.00
2018-08-30T12:43:32.479Z,8.70
2018-08-30T12:48:35.682Z,8.20
2018-08-30T12:53:39.126Z,8.30
2018-08-30T12:58:42.475Z,10.50
2018-08-30T13:03:45.868Z,7.70
2018-08-30T13:08:49.974Z,8.90
2018-08-30T13:13:53.082Z,7.80
2018-08-30T13:18:56.948Z,8.60
2018-08-30T13:24:01.368Z,8.60
2018-08-30T13:29:04.660Z,7.80
2018-08-30T13:34:08.294Z,7.70
2018-08-30T13:39:12.473Z,8.38
2018-08-30T13:44:15.917Z,7.90
2018-08-30T13:49:19.145Z,7.97
2018-08-30T13:54:22.592Z,7.90
2018-08-30T13:59:26.175Z,7.70
2018-08-30T14:04:29.522Z,7.20
2018-08-30T14:09:32.585Z,7.95
2018-08-30T14:14:35.913Z,7.47
2018-08-30T14:19:39.227Z,7.00
2018-08-30T14:24:42.523Z,6.60
2018-08-30T14:29:45.865Z,7.33
2018-08-30T14:34:53.265Z,7.03
2018-08-30T14:39:58.255Z,6.45
2018-08-30T14:45:01.577Z,6.58
2018-08-30T14:50:06.017Z,6.50
2018-08-30T14:55:09.460Z,7.60
2018-08-30T15:00:13.054Z,6.40
2018-08-30T15:05:16.418Z,6.10
2018-08-30T15:10:19.770Z,6.50
2018-08-30T15:15:23.196Z,7.15
2018-08-30T15:20:26.628Z,7.00
2018-08-30T15:25:29.944Z,6.25
2018-08-30T15:30:34.180Z,7.53
2018-08-30T15:35:37.476Z,6.80
2018-08-30T15:40:40.930Z,7.28
2018-08-30T15:45:44.857Z,6.60
2018-08-30T15:50:48.190Z,5.92
2018-08-30T15:55:51.816Z,5.83
2018-08-30T16:01:20.391Z,7.35
2018-08-30T16:06:23.832Z,6.15
2018-08-30T16:11:27.213Z,7.10
2018-08-30T16:16:30.907Z,11.40
2018-08-30T16:38:16.725Z,7.27
2018-08-30T16:43:20.286Z,6.40
2018-08-30T16:48:23.753Z,6.58
2018-08-30T16:53:29.182Z,5.40
2018-08-30T16:58:32.691Z,5.37
2018-08-30T17:03:37.055Z,4.75
2018-08-30T17:08:40.474Z,7.00
2018-08-30T17:13:43.816Z,5.15
2018-08-30T17:18:49.465Z,5.40
2018-08-30T17:23:52.910Z,5.33
2018-08-30T17:28:56.298Z,5.03
2018-08-30T17:33:59.801Z,3.95
2018-08-30T17:39:04.097Z,4.85
2018-08-30T17:44:08.497Z,5.30
2018-08-30T17:49:13.015Z,4.22
2018-08-30T17:54:17.075Z,5.87
2018-08-30T17:59:20.431Z,7.58
2018-08-30T18:04:23.975Z,3.30
2018-08-30T18:09:28.424Z,5.30
2018-08-30T18:14:34.256Z,5.67
2018-08-30T18:19:38.728Z,3.35
2018-08-30T18:24:42.171Z,4.77
2018-08-30T18:29:45.814Z,4.97
2018-08-30T18:35:29.085Z,4.10
2018-08-30T18:40:33.892Z,4.83
2018-08-30T18:45:37.748Z,5.70
2018-08-30T18:50:41.418Z,3.10
2018-08-30T18:55:45.924Z,5.30
2018-08-30T19:00:50.457Z,6.58
2018-08-30T19:05:55.457Z,4.53
2018-08-30T19:11:00.390Z,3.20
2018-08-30T19:16:09.093Z,5.83
2018-08-30T19:21:13.313Z,4.85
2018-08-30T19:26:18.757Z,3.37
2018-08-30T19:31:22.921Z,3.83
2018-08-30T19:36:31.409Z,4.33
2018-08-30T19:41:35.200Z,4.28
2018-08-30T19:46:39.329Z,3.20
2018-08-30T19:51:43.189Z,3.05
2018-08-30T19:56:46.921Z,5.08
2018-08-30T20:01:51.790Z,3.30
2018-08-30T20:06:55.325Z,4.37
2018-08-30T20:11:59.915Z,4.15
2018-08-30T20:17:03.380Z,3.87
2018-08-30T20:22:10.261Z,4.80
2018-08-30T20:27:13.662Z,3.60
2018-08-30T20:32:17.065Z,4.25
2018-08-30T20:37:20.507Z,4.57
2018-08-30T20:42:24.097Z,3.52
2018-08-30T20:47:27.577Z,4.55
2018-08-30T20:52:30.927Z,4.03
2018-08-30T20:57:34.451Z,5.15
2018-08-30T21:02:38.390Z,4.40
2018-08-30T21:07:41.782Z,7.60
2018-08-30T21:12:45.196Z,4.37
2018-08-30T21:17:48.622Z,3.43
2018-08-30T21:23:18.734Z,4.87
2018-08-30T21:28:22.128Z,5.03
2018-08-30T21:33:25.726Z,2.55
2018-08-30T21:38:29.111Z,2.47
2018-08-30T21:43:32.414Z,6.40
2018-08-30T21:48:35.799Z,4.00
2018-08-30T21:53:39.257Z,3.60
2018-08-30T21:58:42.769Z,4.03
2018-08-30T22:03:46.090Z,2.60
2018-08-30T22:08:49.491Z,3.80
2018-08-30T22:13:53.117Z,3.50
2018-08-30T22:18:56.618Z,3.07
2018-08-30T22:24:00.472Z,3.08
2018-08-30T22:29:04.245Z,3.10
2018-08-30T22:34:07.560Z,3.40
2018-08-30T22:39:10.937Z,3.10
2018-08-30T22:44:14.223Z,3.33
2018-08-30T22:49:17.550Z,2.40
2018-08-30T22:54:20.835Z,2.75
2018-08-30T22:59:24.265Z,3.80
2018-08-30T23:04:27.550Z,4.17
2018-08-30T23:09:30.839Z,2.58
2018-08-30T23:14:34.293Z,2.77
2018-08-30T23:19:37.680Z,3.30
2018-08-30T23:24:41.095Z,2.83
2018-08-30T23:29:44.307Z,4.00
2018-08-30T23:34:47.742Z,2.42
2018-08-30T23:39:50.973Z,4.00
2018-08-30T23:44:54.301Z,2.60
2018-08-30T23:49:57.623Z,2.98
2018-08-30T23:55:00.956Z,4.72
